sensor_id;sensor_type;location;lat;lon;timestamp;P1;durP1;ratioP1;P2;durP2;ratioP2
2480;SDS011;57396;48.742;9.128;2022-08-01T00:02:14;4.17;;;3.80;;
2480;SDS011;57396;48.742;9.128;2022-08-01T00:04:39;5.07;;;4.63;;
2480;SDS011;57396;48.742;9.128;2022-08-01T00:07:05;5.20;;;4.07;;
2480;SDS011;57396;48.742;9.128;2022-08-01T00:09:30;3.00;;;2.80;;
2480;SDS011;57396;48.742;9.128;2022-08-01T00:11:55;6.03;;;3.23;;
2480;SDS011;57396;48.742;9.128;2022-08-01T00:14:21;4.90;;;3.20;;
2480;SDS011;57396;48.742;9.128;2022-08-01T00:16:46;3.10;;;2.90;;
2480;SDS011;57396;48.742;9.128;2022-08-01T00:19:12;6.13;;;3.07;;
2480;SDS011;57396;48.742;9.128;2022-08-01T00:21:37;3.87;;;3.40;;
2480;SDS011;57396;48.742;9.128;2022-08-01T00:24:03;3.10;;;2.90;;
2480;SDS011;57396;48.742;9.128;2022-08-01T00:26:28;4.33;;;3.10;;
2480;SDS011;57396;48.742;9.128;2022-08-01T00:28:54;3.60;;;2.80;;
2480;SDS011;57396;48.742;9.128;2022-08-01T00:31:19;6.23;;;3.33;;
2480;SDS011;57396;48.742;9.128;2022-08-01T00:33:45;7.33;;;2.43;;
2480;SDS011;57396;48.742;9.128;2022-08-01T00:36:10;3.00;;;2.37;;
2480;SDS011;57396;48.742;9.128;2022-08-01T00:38:35;2.90;;;2.70;;
2480;SDS011;57396;48.742;9.128;2022-08-01T00:41:01;3.53;;;2.63;;
2480;SDS011;57396;48.742;9.128;2022-08-01T00:43:26;4.67;;;3.43;;
2480;SDS011;57396;48.742;9.128;2022-08-01T00:45:52;7.00;;;3.03;;
2480;SDS011;57396;48.742;9.128;2022-08-01T00:48:17;2.97;;;2.77;;
2480;SDS011;57396;48.742;9.128;2022-08-01T00:50:43;4.10;;;3.10;;
2480;SDS011;57396;48.742;9.128;2022-08-01T00:53:08;5.17;;;3.07;;
2480;SDS011;57396;48.742;9.128;2022-08-01T00:55:34;2.70;;;2.50;;
2480;SDS011;57396;48.742;9.128;2022-08-01T00:57:59;2.90;;;2.70;;
2480;SDS011;57396;48.742;9.128;2022-08-01T01:00:25;3.17;;;2.87;;
2480;SDS011;57396;48.742;9.128;2022-08-01T01:02:51;3.70;;;3.40;;
2480;SDS011;57396;48.742;9.128;2022-08-01T01:05:17;3.03;;;2.70;;
2480;SDS011;57396;48.742;9.128;2022-08-01T01:08:04;2.90;;;2.70;;
2480;SDS011;57396;48.742;9.128;2022-08-01T01:10:37;3.23;;;2.73;;
2480;SDS011;57396;48.742;9.128;2022-08-01T01:13:09;2.97;;;2.70;;
2480;SDS011;57396;48.742;9.128;2022-08-01T01:15:41;2.60;;;2.40;;
2480;SDS011;57396;48.742;9.128;2022-08-01T01:18:15;11.00;;;2.83;;
2480;SDS011;57396;48.742;9.128;2022-08-01T01:21:04;3.03;;;2.73;;
2480;SDS011;57396;48.742;9.128;2022-08-01T01:29:06;3.87;;;2.70;;
2480;SDS011;57396;48.742;9.128;2022-08-01T01:31:47;2.50;;;2.30;;
2480;SDS011;57396;48.742;9.128;2022-08-01T01:34:25;3.00;;;2.80;;
2480;SDS011;57396;48.742;9.128;2022-08-01T01:36:53;10.10;;;2.83;;
2480;SDS011;57396;48.742;9.128;2022-08-01T01:39:20;3.30;;;2.80;;
2480;SDS011;57396;48.742;9.128;2022-08-01T01:41:46;2.73;;;2.47;;
2480;SDS011;57396;48.742;9.128;2022-08-01T01:44:12;2.60;;;2.33;;
2480;SDS011;57396;48.742;9.128;2022-08-01T01:46:38;2.80;;;2.60;;
2480;SDS011;57396;48.742;9.128;2022-08-01T01:49:04;4.57;;;2.60;;
2480;SDS011;57396;48.742;9.128;2022-08-01T01:51:30;2.40;;;2.20;;
2480;SDS011;57396;48.742;9.128;2022-08-01T01:53:56;3.40;;;2.87;;
2480;SDS011;57396;48.742;9.128;2022-08-01T01:56:23;5.43;;;3.17;;
2480;SDS011;57396;48.742;9.128;2022-08-01T01:58:53;2.90;;;2.70;;
2480;SDS011;57396;48.742;9.128;2022-08-01T02:01:21;2.80;;;2.60;;
2480;SDS011;57396;48.742;9.128;2022-08-01T02:03:49;2.90;;;2.70;;
2480;SDS011;57396;48.742;9.128;2022-08-01T02:06:15;3.20;;;2.53;;
2480;SDS011;57396;48.742;9.128;2022-08-01T02:08:41;4.13;;;2.80;;
2480;SDS011;57396;48.742;9.128;2022-08-01T02:11:07;3.00;;;2.70;;
2480;SDS011;57396;48.742;9.128;2022-08-01T02:13:48;3.00;;;2.40;;
2480;SDS011;57396;48.742;9.128;2022-08-01T02:16:26;3.97;;;2.67;;
2480;SDS011;57396;48.742;9.128;2022-08-01T02:18:55;3.17;;;2.57;;
2480;SDS011;57396;48.742;9.128;2022-08-01T02:21:23;2.90;;;2.60;;
2480;SDS011;57396;48.742;9.128;2022-08-01T02:23:52;4.27;;;2.80;;
2480;SDS011;57396;48.742;9.128;2022-08-01T02:26:19;2.60;;;2.40;;
2480;SDS011;57396;48.742;9.128;2022-08-01T02:28:50;2.40;;;2.20;;
2480;SDS011;57396;48.742;9.128;2022-08-01T02:31:20;2.50;;;2.30;;
2480;SDS011;57396;48.742;9.128;2022-08-01T02:33:49;2.80;;;2.60;;
2480;SDS011;57396;48.742;9.128;2022-08-01T02:36:20;2.90;;;2.70;;
2480;SDS011;57396;48.742;9.128;2022-08-01T02:38:46;3.67;;;2.73;;
2480;SDS011;57396;48.742;9.128;2022-08-01T02:41:13;2.70;;;2.50;;
2480;SDS011;57396;48.742;9.128;2022-08-01T02:43:45;2.93;;;2.70;;
2480;SDS011;57396;48.742;9.128;2022-08-01T02:46:16;3.20;;;3.00;;
2480;SDS011;57396;48.742;9.128;2022-08-01T02:48:45;3.50;;;3.20;;
2480;SDS011;57396;48.742;9.128;2022-08-01T02:51:11;3.00;;;2.80;;
2480;SDS011;57396;48.742;9.128;2022-08-01T02:53:37;4.83;;;2.97;;
2480;SDS011;57396;48.742;9.128;2022-08-01T02:56:04;5.93;;;2.60;;
2480;SDS011;57396;48.742;9.128;2022-08-01T02:58:30;3.90;;;3.20;;
2480;SDS011;57396;48.742;9.128;2022-08-01T03:00:57;3.20;;;2.90;;
2480;SDS011;57396;48.742;9.128;2022-08-01T03:03:23;3.63;;;2.63;;
2480;SDS011;57396;48.742;9.128;2022-08-01T03:05:49;2.83;;;2.63;;
2480;SDS011;57396;48.742;9.128;2022-08-01T03:08:15;2.90;;;2.70;;
2480;SDS011;57396;48.742;9.128;2022-08-01T03:10:42;6.37;;;2.63;;
2480;SDS011;57396;48.742;9.128;2022-08-01T03:13:08;7.63;;;2.87;;
2480;SDS011;57396;48.742;9.128;2022-08-01T03:15:36;3.63;;;2.77;;
2480;SDS011;57396;48.742;9.128;2022-08-01T03:18:03;3.37;;;3.07;;
2480;SDS011;57396;48.742;9.128;2022-08-01T03:20:30;3.40;;;2.60;;
2480;SDS011;57396;48.742;9.128;2022-08-01T03:22:59;7.67;;;2.90;;
2480;SDS011;57396;48.742;9.128;2022-08-01T03:25:27;3.20;;;2.60;;
2480;SDS011;57396;48.742;9.128;2022-08-01T03:27:54;4.63;;;2.60;;
2480;SDS011;57396;48.742;9.128;2022-08-01T03:30:25;3.80;;;2.90;;
2480;SDS011;57396;48.742;9.128;2022-08-01T03:32:51;5.00;;;2.70;;
2480;SDS011;57396;48.742;9.128;2022-08-01T03:35:17;3.03;;;2.53;;
2480;SDS011;57396;48.742;9.128;2022-08-01T03:37:47;3.17;;;2.87;;
2480;SDS011;57396;48.742;9.128;2022-08-01T03:40:17;3.00;;;2.80;;
2480;SDS011;57396;48.742;9.128;2022-08-01T03:42:47;5.63;;;2.97;;
2480;SDS011;57396;48.742;9.128;2022-08-01T03:45:27;4.50;;;3.00;;
2480;SDS011;57396;48.742;9.128;2022-08-01T03:47:59;4.03;;;3.07;;
2480;SDS011;57396;48.742;9.128;2022-08-01T03:50:25;5.23;;;2.53;;
2480;SDS011;57396;48.742;9.128;2022-08-01T03:52:52;2.90;;;2.70;;
2480;SDS011;57396;48.742;9.128;2022-08-01T03:55:18;3.30;;;3.00;;
2480;SDS011;57396;48.742;9.128;2022-08-01T03:57:46;2.87;;;2.67;;
2480;SDS011;57396;48.742;9.128;2022-08-01T04:00:12;3.10;;;2.77;;
2480;SDS011;57396;48.742;9.128;2022-08-01T04:02:38;5.20;;;3.07;;
2480;SDS011;57396;48.742;9.128;2022-08-01T04:05:04;4.67;;;2.40;;
2480;SDS011;57396;48.742;9.128;2022-08-01T04:07:30;3.93;;;2.53;;
2480;SDS011;57396;48.742;9.128;2022-08-01T04:09:57;5.73;;;2.33;;
2480;SDS011;57396;48.742;9.128;2022-08-01T04:12:23;3.77;;;3.33;;
2480;SDS011;57396;48.742;9.128;2022-08-01T04:14:48;4.23;;;2.97;;
2480;SDS011;57396;48.742;9.128;2022-08-01T04:17:17;3.73;;;2.87;;
2480;SDS011;57396;48.742;9.128;2022-08-01T04:19:43;3.77;;;2.80;;
2480;SDS011;57396;48.742;9.128;2022-08-01T04:22:09;3.20;;;2.90;;
2480;SDS011;57396;48.742;9.128;2022-08-01T04:24:36;2.77;;;2.57;;
2480;SDS011;57396;48.742;9.128;2022-08-01T04:27:03;2.70;;;2.43;;
2480;SDS011;57396;48.742;9.128;2022-08-01T04:29:31;2.80;;;2.60;;
2480;SDS011;57396;48.742;9.128;2022-08-01T04:31:57;2.50;;;2.30;;
2480;SDS011;57396;48.742;9.128;2022-08-01T04:34:25;3.43;;;2.50;;
2480;SDS011;57396;48.742;9.128;2022-08-01T04:36:54;3.00;;;2.50;;
2480;SDS011;57396;48.742;9.128;2022-08-01T04:39:20;5.23;;;3.27;;
2480;SDS011;57396;48.742;9.128;2022-08-01T04:41:49;6.43;;;2.90;;
2480;SDS011;57396;48.742;9.128;2022-08-01T04:44:15;4.80;;;3.20;;
2480;SDS011;57396;48.742;9.128;2022-08-01T04:46:41;3.83;;;3.43;;
2480;SDS011;57396;48.742;9.128;2022-08-01T04:49:07;4.90;;;3.90;;
2480;SDS011;57396;48.742;9.128;2022-08-01T04:51:34;7.80;;;3.50;;
2480;SDS011;57396;48.742;9.128;2022-08-01T04:54:00;4.43;;;3.70;;
2480;SDS011;57396;48.742;9.128;2022-08-01T04:56:26;9.83;;;4.00;;
2480;SDS011;57396;48.742;9.128;2022-08-01T04:58:51;5.87;;;4.03;;
2480;SDS011;57396;48.742;9.128;2022-08-01T05:01:37;4.00;;;3.33;;
2480;SDS011;57396;48.742;9.128;2022-08-01T05:04:02;9.03;;;3.80;;
2480;SDS011;57396;48.742;9.128;2022-08-01T05:06:28;4.07;;;3.30;;
2480;SDS011;57396;48.742;9.128;2022-08-01T05:08:53;10.90;;;3.80;;
2480;SDS011;57396;48.742;9.128;2022-08-01T05:11:18;3.20;;;2.90;;
2480;SDS011;57396;48.742;9.128;2022-08-01T05:13:44;3.60;;;3.30;;
2480;SDS011;57396;48.742;9.128;2022-08-01T05:16:09;4.13;;;3.57;;
2480;SDS011;57396;48.742;9.128;2022-08-01T05:18:35;3.43;;;3.13;;
2480;SDS011;57396;48.742;9.128;2022-08-01T05:21:01;4.07;;;3.37;;
2480;SDS011;57396;48.742;9.128;2022-08-01T05:23:26;4.60;;;3.03;;
2480;SDS011;57396;48.742;9.128;2022-08-01T05:25:52;2.67;;;2.17;;
2480;SDS011;57396;48.742;9.128;2022-08-01T05:28:17;4.10;;;2.00;;
2480;SDS011;57396;48.742;9.128;2022-08-01T05:30:43;2.83;;;1.97;;
2480;SDS011;57396;48.742;9.128;2022-08-01T05:33:08;4.80;;;2.20;;
2480;SDS011;57396;48.742;9.128;2022-08-01T05:35:34;2.70;;;2.00;;
2480;SDS011;57396;48.742;9.128;2022-08-01T05:37:59;5.00;;;2.20;;
2480;SDS011;57396;48.742;9.128;2022-08-01T05:40:25;2.87;;;1.80;;
2480;SDS011;57396;48.742;9.128;2022-08-01T05:42:50;3.17;;;2.30;;
2480;SDS011;57396;48.742;9.128;2022-08-01T05:45:15;2.50;;;2.00;;
2480;SDS011;57396;48.742;9.128;2022-08-01T05:47:41;2.30;;;2.10;;
2480;SDS011;57396;48.742;9.128;2022-08-01T05:50:06;2.00;;;1.90;;
2480;SDS011;57396;48.742;9.128;2022-08-01T05:52:32;2.80;;;1.63;;
2480;SDS011;57396;48.742;9.128;2022-08-01T05:54:58;2.33;;;2.13;;
2480;SDS011;57396;48.742;9.128;2022-08-01T05:57:23;2.37;;;1.93;;
2480;SDS011;57396;48.742;9.128;2022-08-01T05:59:49;2.03;;;1.83;;
2480;SDS011;57396;48.742;9.128;2022-08-01T06:02:14;4.20;;;1.87;;
2480;SDS011;57396;48.742;9.128;2022-08-01T06:04:40;4.40;;;2.23;;
2480;SDS011;57396;48.742;9.128;2022-08-01T06:07:05;1.83;;;1.73;;
2480;SDS011;57396;48.742;9.128;2022-08-01T06:09:31;4.40;;;1.90;;
2480;SDS011;57396;48.742;9.128;2022-08-01T06:11:56;1.97;;;1.60;;
2480;SDS011;57396;48.742;9.128;2022-08-01T06:14:21;1.97;;;1.60;;
2480;SDS011;57396;48.742;9.128;2022-08-01T06:16:47;1.90;;;1.70;;
2480;SDS011;57396;48.742;9.128;2022-08-01T06:19:12;4.23;;;1.60;;
2480;SDS011;57396;48.742;9.128;2022-08-01T06:21:38;1.80;;;1.50;;
2480;SDS011;57396;48.742;9.128;2022-08-01T06:24:03;4.20;;;1.50;;
2480;SDS011;57396;48.742;9.128;2022-08-01T06:26:29;1.60;;;1.50;;
2480;SDS011;57396;48.742;9.128;2022-08-01T06:28:56;2.57;;;1.80;;
2480;SDS011;57396;48.742;9.128;2022-08-01T06:31:21;5.20;;;1.43;;
2480;SDS011;57396;48.742;9.128;2022-08-01T06:33:47;2.93;;;1.40;;
2480;SDS011;57396;48.742;9.128;2022-08-01T06:36:12;1.87;;;1.30;;
2480;SDS011;57396;48.742;9.128;2022-08-01T06:38:38;2.40;;;1.67;;
2480;SDS011;57396;48.742;9.128;2022-08-01T06:41:03;1.43;;;1.30;;
2480;SDS011;57396;48.742;9.128;2022-08-01T06:43:29;2.00;;;1.33;;
2480;SDS011;57396;48.742;9.128;2022-08-01T06:45:54;1.80;;;1.50;;
2480;SDS011;57396;48.742;9.128;2022-08-01T06:48:20;3.53;;;1.50;;
2480;SDS011;57396;48.742;9.128;2022-08-01T06:50:46;1.73;;;1.30;;
2480;SDS011;57396;48.742;9.128;2022-08-01T06:53:11;1.60;;;1.50;;
2480;SDS011;57396;48.742;9.128;2022-08-01T06:55:37;1.70;;;1.60;;
2480;SDS011;57396;48.742;9.128;2022-08-01T06:58:03;2.60;;;1.53;;
2480;SDS011;57396;48.742;9.128;2022-08-01T07:00:29;2.80;;;1.33;;
2480;SDS011;57396;48.742;9.128;2022-08-01T07:02:55;2.30;;;1.47;;
2480;SDS011;57396;48.742;9.128;2022-08-01T07:05:22;1.73;;;1.13;;
2480;SDS011;57396;48.742;9.128;2022-08-01T07:07:47;1.80;;;1.40;;
2480;SDS011;57396;48.742;9.128;2022-08-01T07:10:13;2.40;;;1.60;;
2480;SDS011;57396;48.742;9.128;2022-08-01T07:12:38;4.33;;;3.20;;
2480;SDS011;57396;48.742;9.128;2022-08-01T07:15:06;3.63;;;1.60;;
2480;SDS011;57396;48.742;9.128;2022-08-01T07:17:32;2.07;;;1.70;;
2480;SDS011;57396;48.742;9.128;2022-08-01T07:20:01;2.37;;;1.70;;
2480;SDS011;57396;48.742;9.128;2022-08-01T07:22:27;5.93;;;1.60;;
2480;SDS011;57396;48.742;9.128;2022-08-01T07:24:53;2.93;;;2.23;;
2480;SDS011;57396;48.742;9.128;2022-08-01T07:27:18;1.70;;;1.60;;
2480;SDS011;57396;48.742;9.128;2022-08-01T07:29:43;1.57;;;1.47;;
2480;SDS011;57396;48.742;9.128;2022-08-01T07:32:09;1.93;;;1.60;;
2480;SDS011;57396;48.742;9.128;2022-08-01T07:34:34;1.90;;;1.80;;
2480;SDS011;57396;48.742;9.128;2022-08-01T07:37:00;2.07;;;1.50;;
2480;SDS011;57396;48.742;9.128;2022-08-01T07:39:25;9.93;;;1.90;;
2480;SDS011;57396;48.742;9.128;2022-08-01T07:41:51;1.60;;;1.50;;
2480;SDS011;57396;48.742;9.128;2022-08-01T07:44:16;4.03;;;2.13;;
2480;SDS011;57396;48.742;9.128;2022-08-01T07:46:42;3.20;;;1.87;;
2480;SDS011;57396;48.742;9.128;2022-08-01T07:49:07;3.07;;;1.80;;
2480;SDS011;57396;48.742;9.128;2022-08-01T07:51:33;2.30;;;1.70;;
2480;SDS011;57396;48.742;9.128;2022-08-01T07:53:58;6.07;;;1.80;;
2480;SDS011;57396;48.742;9.128;2022-08-01T07:56:23;2.60;;;2.03;;
2480;SDS011;57396;48.742;9.128;2022-08-01T07:58:50;2.10;;;1.70;;
2480;SDS011;57396;48.742;9.128;2022-08-01T08:01:15;2.80;;;2.13;;
2480;SDS011;57396;48.742;9.128;2022-08-01T08:03:41;2.30;;;2.10;;
2480;SDS011;57396;48.742;9.128;2022-08-01T08:06:06;1.93;;;1.83;;
2480;SDS011;57396;48.742;9.128;2022-08-01T08:08:32;2.70;;;1.93;;
2480;SDS011;57396;48.742;9.128;2022-08-01T08:10:59;2.50;;;2.20;;
2480;SDS011;57396;48.742;9.128;2022-08-01T08:13:25;2.43;;;1.73;;
2480;SDS011;57396;48.742;9.128;2022-08-01T08:15:50;2.90;;;2.20;;
2480;SDS011;57396;48.742;9.128;2022-08-01T08:18:16;3.97;;;2.40;;
2480;SDS011;57396;48.742;9.128;2022-08-01T08:20:41;2.50;;;1.90;;
2480;SDS011;57396;48.742;9.128;2022-08-01T08:23:07;2.63;;;2.10;;
2480;SDS011;57396;48.742;9.128;2022-08-01T08:25:52;1.90;;;1.80;;
2480;SDS011;57396;48.742;9.128;2022-08-01T08:28:18;2.53;;;1.87;;
2480;SDS011;57396;48.742;9.128;2022-08-01T08:30:43;2.37;;;2.10;;
2480;SDS011;57396;48.742;9.128;2022-08-01T08:33:09;1.90;;;1.80;;
2480;SDS011;57396;48.742;9.128;2022-08-01T08:35:34;3.07;;;2.40;;
2480;SDS011;57396;48.742;9.128;2022-08-01T08:37:59;4.50;;;2.77;;
2480;SDS011;57396;48.742;9.128;2022-08-01T08:40:25;2.40;;;2.30;;
2480;SDS011;57396;48.742;9.128;2022-08-01T08:42:54;2.87;;;2.60;;
2480;SDS011;57396;48.742;9.128;2022-08-01T08:45:20;2.50;;;2.30;;
2480;SDS011;57396;48.742;9.128;2022-08-01T08:47:46;3.30;;;2.53;;
2480;SDS011;57396;48.742;9.128;2022-08-01T08:50:13;4.53;;;2.60;;
2480;SDS011;57396;48.742;9.128;2022-08-01T08:52:39;2.87;;;2.57;;
2480;SDS011;57396;48.742;9.128;2022-08-01T08:55:04;2.80;;;2.60;;
2480;SDS011;57396;48.742;9.128;2022-08-01T08:57:30;3.07;;;2.77;;
2480;SDS011;57396;48.742;9.128;2022-08-01T08:59:56;2.30;;;2.20;;
2480;SDS011;57396;48.742;9.128;2022-08-01T09:02:23;3.37;;;2.87;;
2480;SDS011;57396;48.742;9.128;2022-08-01T09:04:49;2.73;;;2.53;;
2480;SDS011;57396;48.742;9.128;2022-08-01T09:07:15;3.37;;;3.13;;
2480;SDS011;57396;48.742;9.128;2022-08-01T09:09:41;3.60;;;2.63;;
2480;SDS011;57396;48.742;9.128;2022-08-01T09:12:06;3.00;;;2.80;;
2480;SDS011;57396;48.742;9.128;2022-08-01T09:14:32;4.40;;;2.83;;
2480;SDS011;57396;48.742;9.128;2022-08-01T09:17:01;3.67;;;3.37;;
2480;SDS011;57396;48.742;9.128;2022-08-01T09:22:04;4.43;;;4.03;;
2480;SDS011;57396;48.742;9.128;2022-08-01T09:24:32;4.13;;;3.73;;
2480;SDS011;57396;48.742;9.128;2022-08-01T09:26:58;3.63;;;3.20;;
2480;SDS011;57396;48.742;9.128;2022-08-01T09:29:25;3.70;;;3.40;;
2480;SDS011;57396;48.742;9.128;2022-08-01T09:31:53;5.67;;;3.07;;
2480;SDS011;57396;48.742;9.128;2022-08-01T09:34:26;5.60;;;3.20;;
2480;SDS011;57396;48.742;9.128;2022-08-01T09:36:57;4.80;;;4.40;;
2480;SDS011;57396;48.742;9.128;2022-08-01T09:39:30;3.97;;;3.67;;
2480;SDS011;57396;48.742;9.128;2022-08-01T09:42:18;4.63;;;3.97;;
2480;SDS011;57396;48.742;9.128;2022-08-01T09:44:45;4.17;;;3.77;;
2480;SDS011;57396;48.742;9.128;2022-08-01T09:47:11;7.57;;;3.70;;
2480;SDS011;57396;48.742;9.128;2022-08-01T09:49:38;4.60;;;3.77;;
2480;SDS011;57396;48.742;9.128;2022-08-01T09:52:17;3.40;;;3.10;;
2480;SDS011;57396;48.742;9.128;2022-08-01T09:54:51;3.47;;;3.17;;
2480;SDS011;57396;48.742;9.128;2022-08-01T09:57:19;3.77;;;3.47;;
2480;SDS011;57396;48.742;9.128;2022-08-01T09:59:45;4.30;;;3.90;;
2480;SDS011;57396;48.742;9.128;2022-08-01T10:02:13;4.70;;;4.30;;
2480;SDS011;57396;48.742;9.128;2022-08-01T10:04:51;6.30;;;4.60;;
2480;SDS011;57396;48.742;9.128;2022-08-01T10:07:17;5.30;;;4.50;;
2480;SDS011;57396;48.742;9.128;2022-08-01T10:09:44;6.67;;;4.20;;
2480;SDS011;57396;48.742;9.128;2022-08-01T10:12:10;6.90;;;5.00;;
2480;SDS011;57396;48.742;9.128;2022-08-01T10:14:38;5.20;;;4.77;;
2480;SDS011;57396;48.742;9.128;2022-08-01T10:17:04;5.73;;;4.90;;
2480;SDS011;57396;48.742;9.128;2022-08-01T10:19:32;4.60;;;4.07;;
2480;SDS011;57396;48.742;9.128;2022-08-01T10:22:00;4.67;;;4.27;;
2480;SDS011;57396;48.742;9.128;2022-08-01T10:24:27;6.03;;;3.63;;
2480;SDS011;57396;48.742;9.128;2022-08-01T10:26:57;5.83;;;4.30;;
2480;SDS011;57396;48.742;9.128;2022-08-01T10:29:27;5.47;;;4.13;;
2480;SDS011;57396;48.742;9.128;2022-08-01T10:31:53;5.23;;;3.93;;
2480;SDS011;57396;48.742;9.128;2022-08-01T10:34:18;4.37;;;3.70;;
2480;SDS011;57396;48.742;9.128;2022-08-01T10:36:47;3.70;;;3.30;;
2480;SDS011;57396;48.742;9.128;2022-08-01T10:39:13;3.30;;;3.00;;
2480;SDS011;57396;48.742;9.128;2022-08-01T10:41:39;3.27;;;2.97;;
2480;SDS011;57396;48.742;9.128;2022-08-01T10:44:08;4.80;;;3.00;;
2480;SDS011;57396;48.742;9.128;2022-08-01T10:46:38;4.70;;;3.43;;
2480;SDS011;57396;48.742;9.128;2022-08-01T10:49:07;5.73;;;2.90;;
2480;SDS011;57396;48.742;9.128;2022-08-01T10:51:37;4.00;;;3.63;;
2480;SDS011;57396;48.742;9.128;2022-08-01T10:54:05;5.90;;;4.70;;
2480;SDS011;57396;48.742;9.128;2022-08-01T10:57:04;3.83;;;3.23;;
2480;SDS011;57396;48.742;9.128;2022-08-01T10:59:26;3.20;;;2.70;;
2480;SDS011;57396;48.742;9.128;2022-08-01T11:01:59;4.23;;;3.93;;
2480;SDS011;57396;48.742;9.128;2022-08-01T11:05:09;2.80;;;2.50;;
2480;SDS011;57396;48.742;9.128;2022-08-01T11:07:24;4.23;;;2.40;;
2480;SDS011;57396;48.742;9.128;2022-08-01T11:10:13;5.77;;;3.20;;
2480;SDS011;57396;48.742;9.128;2022-08-01T11:12:44;4.83;;;2.90;;
2480;SDS011;57396;48.742;9.128;2022-08-01T11:17:36;4.00;;;3.37;;
2480;SDS011;57396;48.742;9.128;2022-08-01T11:20:13;2.73;;;2.53;;
2480;SDS011;57396;48.742;9.128;2022-08-01T11:30:52;3.20;;;3.00;;
2480;SDS011;57396;48.742;9.128;2022-08-01T11:38:34;3.70;;;3.23;;
2480;SDS011;57396;48.742;9.128;2022-08-01T11:46:44;4.60;;;2.30;;
2480;SDS011;57396;48.742;9.128;2022-08-01T11:57:07;5.90;;;4.53;;
2480;SDS011;57396;48.742;9.128;2022-08-01T11:59:43;4.33;;;2.90;;
2480;SDS011;57396;48.742;9.128;2022-08-01T12:04:48;3.80;;;3.40;;
2480;SDS011;57396;48.742;9.128;2022-08-01T12:07:18;3.87;;;2.90;;
2480;SDS011;57396;48.742;9.128;2022-08-01T12:09:45;4.47;;;2.70;;
2480;SDS011;57396;48.742;9.128;2022-08-01T12:12:12;5.20;;;4.70;;
2480;SDS011;57396;48.742;9.128;2022-08-01T12:14:42;2.50;;;2.30;;
2480;SDS011;57396;48.742;9.128;2022-08-01T12:17:07;2.00;;;1.90;;
2480;SDS011;57396;48.742;9.128;2022-08-01T12:19:33;3.40;;;2.03;;
2480;SDS011;57396;48.742;9.128;2022-08-01T12:22:04;5.13;;;2.60;;
2480;SDS011;57396;48.742;9.128;2022-08-01T12:24:40;2.33;;;2.10;;
2480;SDS011;57396;48.742;9.128;2022-08-01T12:27:07;8.70;;;2.43;;
2480;SDS011;57396;48.742;9.128;2022-08-01T12:29:41;2.60;;;2.40;;
2480;SDS011;57396;48.742;9.128;2022-08-01T12:32:21;5.40;;;2.80;;
2480;SDS011;57396;48.742;9.128;2022-08-01T12:34:49;3.83;;;3.33;;
2480;SDS011;57396;48.742;9.128;2022-08-01T12:37:15;4.90;;;2.70;;
2480;SDS011;57396;48.742;9.128;2022-08-01T12:39:42;8.03;;;3.03;;
2480;SDS011;57396;48.742;9.128;2022-08-01T12:42:07;3.63;;;2.67;;
2480;SDS011;57396;48.742;9.128;2022-08-01T12:44:35;4.20;;;2.80;;
2480;SDS011;57396;48.742;9.128;2022-08-01T12:47:01;4.67;;;3.77;;
2480;SDS011;57396;48.742;9.128;2022-08-01T12:49:27;5.67;;;4.40;;
2480;SDS011;57396;48.742;9.128;2022-08-01T12:51:53;5.87;;;4.47;;
2480;SDS011;57396;48.742;9.128;2022-08-01T12:54:19;10.60;;;3.53;;
2480;SDS011;57396;48.742;9.128;2022-08-01T12:56:44;6.33;;;4.63;;
2480;SDS011;57396;48.742;9.128;2022-08-01T12:59:23;3.30;;;2.70;;
2480;SDS011;57396;48.742;9.128;2022-08-01T13:01:52;3.80;;;3.50;;
2480;SDS011;57396;48.742;9.128;2022-08-01T13:04:18;3.00;;;2.70;;
2480;SDS011;57396;48.742;9.128;2022-08-01T13:06:44;2.30;;;2.20;;
2480;SDS011;57396;48.742;9.128;2022-08-01T13:09:10;2.90;;;2.60;;
2480;SDS011;57396;48.742;9.128;2022-08-01T13:11:37;3.20;;;2.30;;
2480;SDS011;57396;48.742;9.128;2022-08-01T13:14:03;3.17;;;2.23;;
2480;SDS011;57396;48.742;9.128;2022-08-01T13:16:28;2.20;;;2.00;;
2480;SDS011;57396;48.742;9.128;2022-08-01T13:18:55;9.03;;;1.90;;
2480;SDS011;57396;48.742;9.128;2022-08-01T13:21:28;2.80;;;2.20;;
2480;SDS011;57396;48.742;9.128;2022-08-01T13:24:06;1.87;;;1.77;;
2480;SDS011;57396;48.742;9.128;2022-08-01T13:26:55;22.13;;;5.10;;
2480;SDS011;57396;48.742;9.128;2022-08-01T13:29:29;20.40;;;6.50;;
2480;SDS011;57396;48.742;9.128;2022-08-01T13:31:54;5.93;;;1.97;;
2480;SDS011;57396;48.742;9.128;2022-08-01T13:34:35;9.03;;;2.40;;
2480;SDS011;57396;48.742;9.128;2022-08-01T13:37:02;4.20;;;2.47;;
2480;SDS011;57396;48.742;9.128;2022-08-01T13:39:31;2.83;;;2.30;;
2480;SDS011;57396;48.742;9.128;2022-08-01T13:42:08;8.27;;;2.00;;
2480;SDS011;57396;48.742;9.128;2022-08-01T13:44:35;2.97;;;2.30;;
2480;SDS011;57396;48.742;9.128;2022-08-01T13:47:01;3.63;;;2.40;;
2480;SDS011;57396;48.742;9.128;2022-08-01T13:49:27;3.83;;;2.47;;
2480;SDS011;57396;48.742;9.128;2022-08-01T13:51:52;5.73;;;2.47;;
2480;SDS011;57396;48.742;9.128;2022-08-01T13:54:18;4.60;;;2.53;;
2480;SDS011;57396;48.742;9.128;2022-08-01T13:56:43;2.20;;;2.00;;
2480;SDS011;57396;48.742;9.128;2022-08-01T13:59:09;1.87;;;1.77;;
2480;SDS011;57396;48.742;9.128;2022-08-01T14:01:34;3.50;;;1.83;;
2480;SDS011;57396;48.742;9.128;2022-08-01T14:04:00;3.00;;;1.67;;
2480;SDS011;57396;48.742;9.128;2022-08-01T14:06:26;2.50;;;1.73;;
2480;SDS011;57396;48.742;9.128;2022-08-01T14:08:51;3.07;;;1.83;;
2480;SDS011;57396;48.742;9.128;2022-08-01T14:11:17;5.70;;;1.73;;
2480;SDS011;57396;48.742;9.128;2022-08-01T14:13:43;2.20;;;2.10;;
2480;SDS011;57396;48.742;9.128;2022-08-01T14:16:08;1.80;;;1.70;;
2480;SDS011;57396;48.742;9.128;2022-08-01T14:18:34;2.33;;;1.90;;
2480;SDS011;57396;48.742;9.128;2022-08-01T14:20:59;2.50;;;2.30;;
2480;SDS011;57396;48.742;9.128;2022-08-01T14:23:25;9.67;;;2.10;;
2480;SDS011;57396;48.742;9.128;2022-08-01T14:25:51;3.70;;;1.93;;
2480;SDS011;57396;48.742;9.128;2022-08-01T14:28:16;2.30;;;2.10;;
2480;SDS011;57396;48.742;9.128;2022-08-01T14:30:42;2.37;;;1.73;;
2480;SDS011;57396;48.742;9.128;2022-08-01T14:33:08;4.60;;;2.00;;
2480;SDS011;57396;48.742;9.128;2022-08-01T14:35:34;7.53;;;1.90;;
2480;SDS011;57396;48.742;9.128;2022-08-01T14:38:00;2.37;;;1.90;;
2480;SDS011;57396;48.742;9.128;2022-08-01T14:40:25;7.50;;;2.13;;
2480;SDS011;57396;48.742;9.128;2022-08-01T14:42:51;2.90;;;1.90;;
2480;SDS011;57396;48.742;9.128;2022-08-01T14:45:16;1.87;;;1.70;;
2480;SDS011;57396;48.742;9.128;2022-08-01T14:47:42;2.87;;;2.30;;
2480;SDS011;57396;48.742;9.128;2022-08-01T14:50:08;3.60;;;2.03;;
2480;SDS011;57396;48.742;9.128;2022-08-01T14:52:35;2.10;;;1.90;;
2480;SDS011;57396;48.742;9.128;2022-08-01T14:55:02;2.70;;;1.87;;
2480;SDS011;57396;48.742;9.128;2022-08-01T14:57:28;4.77;;;1.90;;
2480;SDS011;57396;48.742;9.128;2022-08-01T14:59:54;6.00;;;2.20;;
2480;SDS011;57396;48.742;9.128;2022-08-01T15:02:19;2.73;;;2.20;;
2480;SDS011;57396;48.742;9.128;2022-08-01T15:04:45;4.10;;;2.33;;
2480;SDS011;57396;48.742;9.128;2022-08-01T15:07:12;4.40;;;2.10;;
2480;SDS011;57396;48.742;9.128;2022-08-01T15:09:38;2.67;;;1.90;;
2480;SDS011;57396;48.742;9.128;2022-08-01T15:12:03;2.60;;;1.90;;
2480;SDS011;57396;48.742;9.128;2022-08-01T15:14:29;4.90;;;1.90;;
2480;SDS011;57396;48.742;9.128;2022-08-01T15:17:21;2.40;;;2.20;;
2480;SDS011;57396;48.742;9.128;2022-08-01T15:19:46;2.63;;;2.53;;
2480;SDS011;57396;48.742;9.128;2022-08-01T15:22:13;4.00;;;1.63;;
2480;SDS011;57396;48.742;9.128;2022-08-01T15:24:39;1.90;;;1.70;;
2480;SDS011;57396;48.742;9.128;2022-08-01T15:27:04;5.50;;;2.20;;
2480;SDS011;57396;48.742;9.128;2022-08-01T15:29:30;4.40;;;2.00;;
2480;SDS011;57396;48.742;9.128;2022-08-01T15:31:56;2.10;;;2.00;;
2480;SDS011;57396;48.742;9.128;2022-08-01T15:34:22;2.40;;;2.10;;
2480;SDS011;57396;48.742;9.128;2022-08-01T15:36:48;2.30;;;2.20;;
2480;SDS011;57396;48.742;9.128;2022-08-01T15:39:13;3.17;;;2.87;;
2480;SDS011;57396;48.742;9.128;2022-08-01T15:41:40;2.80;;;2.60;;
2480;SDS011;57396;48.742;9.128;2022-08-01T15:44:05;2.67;;;1.83;;